Time;durP1;ratioP1;P1;durP2;ratioP2;P2;SDS_P1;SDS_P2;PMS_P1;PMS_P2;Temp;Humidity;BMP_temperature;BMP_pressure;BME280_temperature;BME280_humidity;BME280_pressure;Samples;Min_cycle;Max_cycle;Signal;HPM_P1;HPM_P2
2021/06/10 00:06:12;408893.00;1.36;705.09;0.00;0.00;0.62;;;;;19.80;1.00;;;;;;2282922;61;1474;-89
2021/06/10 00:11:13;836892.00;2.79;1445.54;0.00;0.00;0.62;;;;;19.40;1.60;;;;;;2270393;61;1979;-86
2021/06/10 00:13:54;0.00;0.00;0.62;0.00;0.00;0.62;;;;;19.40;1.40;;;;;;2268828;61;1171;-86
2021/06/10 00:16:26;250570.00;0.84;432.93;38965.00;0.13;68.10;;;;;19.50;1.40;;;;;;2269867;61;887;-86
2021/06/10 00:18:57;349012.00;1.16;602.16;0.00;0.00;0.62;;;;;19.80;1.00;;;;;;2271147;61;1338;-86
2021/06/10 00:21:25;0.00;0.00;0.62;0.00;0.00;0.62;;;;;19.90;1.00;;;;;;2268345;61;1234;-86
2021/06/10 00:23:52;22579.00;0.08;39.74;0.00;0.00;0.62;;;;;20.10;1.00;;;;;;2268667;61;1705;-86
2021/06/10 00:26:24;99253.00;0.33;172.28;0.00;0.00;0.62;;;;;20.20;1.00;;;;;;2268163;61;1660;-86
2021/06/10 00:28:54;170759.00;0.57;295.57;0.00;0.00;0.62;;;;;20.30;1.00;;;;;;2268440;61;1787;-86
2021/06/10 00:31:21;204124.00;0.68;353.02;0.00;0.00;0.62;;;;;20.20;1.00;;;;;;2268025;61;1940;-87
2021/06/10 00:33:47;180677.00;0.60;312.66;33559.00;0.11;58.74;;;;;20.10;1.00;;;;;;2268087;61;1586;-86
2021/06/10 00:36:24;335210.00;1.12;578.44;46513.00;0.16;81.16;;;;;19.60;1.00;;;;;;2268635;61;1082;-86
2021/06/10 00:38:54;94439.00;0.31;163.97;0.00;0.00;0.62;;;;;19.40;1.10;;;;;;2264492;61;1453;-86
2021/06/10 00:41:22;55976.00;0.19;97.52;0.00;0.00;0.62;;;;;19.50;1.00;;;;;;2265166;61;1235;-85
2021/06/10 00:43:49;272769.00;0.91;471.10;9177.00;0.03;16.52;;;;;19.50;1.20;;;;;;2263504;61;1708;-86
2021/06/10 00:46:18;121991.00;0.41;211.52;0.00;0.00;0.62;;;;;19.50;1.10;;;;;;2265655;61;1168;-86
2021/06/10 00:48:47;219044.00;0.73;378.70;7251.00;0.02;13.19;;;;;19.60;1.00;;;;;;2266406;61;1608;-86
2021/06/10 00:51:14;83431.00;0.28;144.96;0.00;0.00;0.62;;;;;19.30;1.70;;;;;;2265816;61;2015;-86
2021/06/10 00:53:40;148220.00;0.49;256.74;23241.00;0.08;40.88;;;;;19.20;2.40;;;;;;2266264;61;1112;-86
2021/06/10 00:56:07;133312.00;0.44;231.04;0.00;0.00;0.62;;;;;19.30;1.90;;;;;;2265200;61;1768;-86
2021/06/10 00:58:35;79464.00;0.26;138.11;0.00;0.00;0.62;;;;;19.60;1.10;;;;;;2268631;61;1391;-86
2021/06/10 01:01:02;153634.00;0.51;266.07;0.00;0.00;0.62;;;;;19.60;1.10;;;;;;2268253;61;1539;-86
2021/06/10 01:03:31;106067.00;0.35;184.04;0.00;0.00;0.62;;;;;19.60;1.00;;;;;;2268951;61;1128;-86
2021/06/10 01:06:01;104522.00;0.35;181.38;0.00;0.00;0.62;;;;;19.30;1.00;;;;;;2268410;61;1090;-86
2021/06/10 01:08:39;62724.00;0.21;109.19;0.00;0.00;0.62;;;;;19.20;1.00;;;;;;2269253;61;1277;-86
2021/06/10 01:11:17;15519.00;0.05;27.51;0.00;0.00;0.62;;;;;19.20;1.00;;;;;;2269370;61;1999;-87
2021/06/10 01:14:03;141494.00;0.47;245.15;20539.00;0.07;36.20;;;;;19.10;1.00;;;;;;2268730;61;1121;-86
2021/06/10 01:16:33;0.00;0.00;0.62;0.00;0.00;0.62;;;;;19.20;1.00;;;;;;2268382;61;1056;-86
2021/06/10 01:19:09;33114.00;0.11;57.97;0.00;0.00;0.62;;;;;19.10;1.00;;;;;;2268251;61;1406;-86
2021/06/10 01:21:41;107905.00;0.36;187.21;0.00;0.00;0.62;;;;;19.10;1.80;;;;;;2268140;61;1564;-86
2021/06/10 01:24:21;0.00;0.00;0.62;0.00;0.00;0.62;;;;;18.90;1.60;;;;;;2269201;61;1284;-87
2021/06/10 01:26:56;198462.00;0.66;343.28;42679.00;0.14;74.52;;;;;19.20;1.30;;;;;;2269720;61;1144;-86
2021/06/10 01:29:34;68175.00;0.23;118.61;0.00;0.00;0.62;;;;;19.00;1.40;;;;;;2268870;61;1983;-87
2021/06/10 01:32:10;145960.00;0.49;252.84;0.00;0.00;0.62;;;;;18.90;1.60;;;;;;2267810;61;1192;-86
2021/06/10 01:34:38;141115.00;0.47;244.49;0.00;0.00;0.62;;;;;18.40;3.00;;;;;;2267631;61;1121;-87
2021/06/10 01:37:14;164353.00;0.55;284.54;0.00;0.00;0.62;;;;;18.50;3.50;;;;;;2259770;61;1431;-86
2021/06/10 01:40:05;124949.00;0.42;216.62;0.00;0.00;0.62;;;;;18.40;2.90;;;;;;2268108;61;1185;-86
2021/06/10 01:42:36;301096.00;1.00;519.80;0.00;0.00;0.62;;;;;18.20;3.50;;;;;;2266771;61;1173;-87
2021/06/10 01:45:05;195355.00;0.65;337.93;0.00;0.00;0.62;;;;;18.30;3.50;;;;;;2267406;61;1132;-86
2021/06/10 01:47:36;178899.00;0.60;309.59;0.00;0.00;0.62;;;;;18.30;4.70;;;;;;2267949;61;1425;-86
2021/06/10 01:50:03;144972.00;0.48;251.14;0.00;0.00;0.62;;;;;18.40;4.70;;;;;;2267529;61;1924;-87
2021/06/10 01:52:38;127751.00;0.43;221.45;15525.00;0.05;27.52;;;;;18.40;4.10;;;;;;2268251;61;1142;-86
2021/06/10 01:55:12;1336445.00;4.45;2338.96;179890.00;0.60;311.30;;;;;18.50;5.10;;;;;;2268556;61;1140;-86
2021/06/10 01:57:40;1003758.00;3.35;1739.13;97664.00;0.33;169.54;;;;;18.80;3.50;;;;;;2267503;61;1338;-87
2021/06/10 02:00:11;1140237.00;3.80;1982.53;137066.00;0.46;237.51;;;;;18.80;3.10;;;;;;2270985;61;1109;-87
2021/06/10 02:02:38;1130914.00;3.77;1965.80;109181.00;0.36;189.42;;;;;19.00;2.10;;;;;;2271271;61;1626;-86
2021/06/10 02:05:06;963306.00;3.21;1667.59;115098.00;0.38;199.63;;;;;18.90;1.70;;;;;;2270659;61;1162;-86
2021/06/10 02:07:36;1044883.00;3.48;1812.13;74416.00;0.25;129.39;;;;;19.10;2.80;;;;;;2270642;61;1405;-86
2021/06/10 02:10:04;602073.00;2.01;1037.80;0.00;0.00;0.62;;;;;19.10;1.00;;;;;;2270285;61;1921;-87
2021/06/10 02:12:31;656728.00;2.19;1132.28;25785.00;0.09;45.29;;;;;18.60;2.40;;;;;;2270351;61;1222;-87
2021/06/10 02:15:00;844150.00;2.81;1458.23;29032.00;0.10;50.91;;;;;18.20;4.40;;;;;;2270566;61;1180;-87
2021/06/10 02:17:28;774498.00;2.58;1336.68;73117.00;0.24;127.15;;;;;18.20;3.90;;;;;;2269762;61;1352;-87
2021/06/10 02:19:54;949337.00;3.16;1642.94;94436.00;0.31;163.97;;;;;18.30;4.10;;;;;;2268000;61;1116;-87
2021/06/10 02:22:21;976542.00;3.26;1690.97;148446.00;0.49;257.13;;;;;18.10;4.70;;;;;;2269083;61;1096;-87
2021/06/10 02:24:48;778173.00;2.59;1343.08;123505.00;0.41;214.13;;;;;17.80;5.40;;;;;;2268679;61;1096;-87
2021/06/10 02:27:15;873095.00;2.91;1508.91;113748.00;0.38;197.30;;;;;17.50;5.90;;;;;;2268080;61;1276;-87
2021/06/10 02:29:41;766444.00;2.55;1322.66;94378.00;0.31;163.87;;;;;17.40;6.40;;;;;;2268833;61;1992;-87
2021/06/10 02:32:09;919783.00;3.07;1590.89;154251.00;0.51;267.13;;;;;17.30;6.70;;;;;;2271718;61;1536;-87
2021/06/10 02:34:37;747148.00;2.49;1289.10;99692.00;0.33;173.04;;;;;17.20;6.80;;;;;;2269192;61;1187;-87
2021/06/10 02:37:06;1224061.00;4.08;2133.78;144500.00;0.48;250.33;;;;;17.20;7.50;;;;;;2269910;61;1372;-87
2021/06/10 02:39:38;902293.00;3.01;1560.15;179054.00;0.60;309.86;;;;;17.20;7.10;;;;;;2268678;61;1625;-87
2021/06/10 02:42:06;643971.00;2.15;1110.21;36369.00;0.12;63.61;;;;;17.20;7.00;;;;;;2268116;61;1219;-87
2021/06/10 02:44:34;712900.00;2.38;1229.62;43365.00;0.14;75.71;;;;;17.20;6.60;;;;;;2268340;61;1073;-87
2021/06/10 02:47:04;1126664.00;3.76;1958.17;160893.00;0.54;278.58;;;;;17.20;6.30;;;;;;2268818;61;1706;-87
2021/06/10 02:49:32;690780.00;2.30;1191.25;29545.00;0.10;51.80;;;;;17.10;6.20;;;;;;2269876;61;2013;-87
2021/06/10 02:52:01;943712.00;3.15;1633.03;74995.00;0.25;130.39;;;;;17.10;6.90;;;;;;2268952;61;1103;-86
2021/06/10 02:54:29;942550.00;3.14;1630.98;58297.00;0.19;101.53;;;;;16.90;7.40;;;;;;2268770;61;975;-87
2021/06/10 02:56:57;789680.00;2.63;1363.13;73308.00;0.24;127.48;;;;;16.80;8.90;;;;;;2270249;61;1342;-87
2021/06/10 02:59:26;745184.00;2.48;1285.68;54768.00;0.18;95.43;;;;;16.90;8.40;;;;;;2270182;61;1152;-87
2021/06/10 03:01:55;908097.00;3.03;1570.35;55723.00;0.19;97.08;;;;;17.00;8.40;;;;;;2270127;61;1203;-87
2021/06/10 03:04:23;792769.00;2.64;1368.52;78242.00;0.26;136.00;;;;;17.10;8.20;;;;;;2268636;61;986;-87
2021/06/10 03:06:50;816333.00;2.72;1409.62;44417.00;0.15;77.53;;;;;17.20;7.70;;;;;;2269325;61;1183;-87
2021/06/10 03:09:19;981033.00;3.27;1698.91;89368.00;0.30;155.22;;;;;17.30;6.80;;;;;;2269086;61;1428;-87
2021/06/10 03:11:47;1047102.00;3.49;1816.08;58899.00;0.20;102.57;;;;;17.00;8.30;;;;;;2269269;61;1954;-86
2021/06/10 03:14:15;902702.00;3.01;1560.87;149858.00;0.50;259.56;;;;;16.90;8.30;;;;;;2269324;61;1140;-87
2021/06/10 03:16:45;858450.00;2.86;1483.26;122332.00;0.41;212.10;;;;;16.90;8.80;;;;;;2269132;61;1110;-87
2021/06/10 03:19:11;911431.00;3.04;1576.21;82476.00;0.27;143.31;;;;;17.00;8.10;;;;;;2269252;61;1597;-87
2021/06/10 03:21:39;810307.00;2.70;1399.10;55816.00;0.19;97.24;;;;;17.00;8.20;;;;;;2269621;61;1222;-87
2021/06/10 03:24:06;918348.00;3.06;1588.37;87124.00;0.29;151.34;;;;;16.90;8.90;;;;;;2270120;61;1549;-87
2021/06/10 03:26:35;1154165.00;3.85;2007.57;224491.00;0.75;388.07;;;;;16.80;9.50;;;;;;2269520;61;1155;-87
2021/06/10 03:29:03;1046204.00;3.49;1814.48;92530.00;0.31;160.68;;;;;17.00;9.00;;;;;;2269537;61;1290;-86
2021/06/10 03:31:31;823439.00;2.74;1422.03;93086.00;0.31;161.64;;;;;17.40;7.20;;;;;;2269168;61;1951;-87
2021/06/10 03:33:59;827733.00;2.76;1429.53;125812.00;0.42;218.11;;;;;17.70;7.00;;;;;;2268562;61;1756;-87
2021/06/10 03:36:27;880887.00;2.94;1522.58;87236.00;0.29;151.53;;;;;17.80;5.40;;;;;;2270169;61;1121;-87
2021/06/10 03:38:55;843945.00;2.81;1457.87;87977.00;0.29;152.81;;;;;17.60;6.40;;;;;;2269734;61;1375;-87
2021/06/10 03:41:21;1040871.00;3.47;1805.00;170020.00;0.57;294.30;;;;;17.70;6.60;;;;;;2270454;61;1158;-87
2021/06/10 03:43:50;1033095.00;3.44;1791.18;163663.00;0.55;283.35;;;;;17.90;5.50;;;;;;2271281;61;1716;-87
2021/06/10 03:46:16;1312083.00;4.37;2294.24;162727.00;0.54;281.74;;;;;17.90;6.30;;;;;;2271538;61;1117;-87
2021/06/10 03:48:43;897963.00;2.99;1552.54;124488.00;0.41;215.82;;;;;17.90;6.40;;;;;;2267047;61;1428;-87
2021/06/10 03:51:10;954584.00;3.18;1652.20;216467.00;0.72;374.26;;;;;17.90;6.60;;;;;;2267089;61;1986;-87
2021/06/10 03:53:38;1045672.00;3.49;1813.53;118832.00;0.40;206.07;;;;;17.90;6.20;;;;;;2266242;61;1175;-87
2021/06/10 03:56:05;532755.00;1.78;918.24;69529.00;0.23;120.95;;;;;17.70;7.00;;;;;;2265563;61;1586;-87
2021/06/10 03:58:31;422272.00;1.41;728.10;75879.00;0.25;131.92;;;;;17.90;7.00;;;;;;2265655;61;1371;-87
2021/06/10 04:00:59;258239.00;0.86;446.12;72857.00;0.24;126.70;;;;;18.30;5.70;;;;;;2266349;61;1117;-87
2021/06/10 04:03:26;427679.00;1.43;737.39;75419.00;0.25;131.12;;;;;18.40;5.00;;;;;;2265647;61;1708;-87
2021/06/10 04:05:53;308666.00;1.03;532.82;61864.00;0.21;107.70;;;;;18.40;5.00;;;;;;2265503;61;1165;-88
2021/06/10 04:08:19;283324.00;0.94;489.25;73361.00;0.24;127.57;;;;;18.00;5.90;;;;;;2270341;61;1281;-87
2021/06/10 04:10:46;283444.00;0.94;489.46;75453.00;0.25;131.18;;;;;18.10;5.80;;;;;;2270644;61;1918;-88
2021/06/10 04:13:12;370790.00;1.24;639.59;74853.00;0.25;130.15;;;;;18.20;6.00;;;;;;2270838;61;1139;-87
2021/06/10 04:15:39;228642.00;0.76;395.21;63614.00;0.21;110.72;;;;;18.40;5.00;;;;;;2270578;61;1069;-87
2021/06/10 04:18:07;420023.00;1.40;724.23;138414.00;0.46;239.84;;;;;18.20;5.70;;;;;;2270740;61;1317;-87
2021/06/10 04:20:34;229608.00;0.77;396.87;80592.00;0.27;140.06;;;;;18.30;5.80;;;;;;2271837;61;1088;-87
2021/06/10 04:23:00;188859.00;0.63;326.74;72404.00;0.24;125.91;;;;;18.20;6.00;;;;;;2271305;61;1077;-87
2021/06/10 04:25:27;191093.00;0.64;330.59;75317.00;0.25;130.95;;;;;18.30;5.60;;;;;;2271055;61;1139;-88
2021/06/10 04:27:53;316848.00;1.06;546.88;86905.00;0.29;150.96;;;;;18.20;5.60;;;;;;2270838;61;1297;-87
2021/06/10 04:30:20;333418.00;1.11;575.36;77086.00;0.26;134.00;;;;;18.40;6.30;;;;;;2270984;61;1932;-87
2021/06/10 04:32:47;245893.00;0.82;424.89;66461.00;0.22;115.64;;;;;18.60;5.10;;;;;;2271354;61;1167;-87
2021/06/10 04:35:17;211828.00;0.71;366.28;71959.00;0.24;125.15;;;;;18.90;5.40;;;;;;2271131;61;1089;-88
2021/06/10 04:37:44;206659.00;0.69;357.39;52249.00;0.17;91.08;;;;;18.70;4.80;;;;;;2271366;61;1405;-87
2021/06/10 04:40:12;290574.00;0.97;501.72;134342.00;0.45;232.82;;;;;18.70;5.20;;;;;;2270938;61;1120;-88
2021/06/10 04:42:38;201017.00;0.67;347.67;64225.00;0.21;111.78;;;;;18.70;5.30;;;;;;2270999;61;1140;-88
2021/06/10 04:45:06;394709.00;1.32;680.71;93387.00;0.31;162.16;;;;;19.00;5.40;;;;;;2272183;61;1155;-87
2021/06/10 04:47:32;347916.00;1.16;600.28;65992.00;0.22;114.83;;;;;19.30;4.40;;;;;;2271348;61;1604;-87
2021/06/10 04:49:59;487966.00;1.63;841.11;134811.00;0.45;233.62;;;;;19.60;3.50;;;;;;2270945;61;2000;-86
2021/06/10 04:52:27;221983.00;0.74;383.76;60819.00;0.20;105.89;;;;;19.80;2.10;;;;;;2270802;61;1145;-88
2021/06/10 04:54:53;144379.00;0.48;250.12;0.00;0.00;0.62;;;;;19.80;1.90;;;;;;2271321;61;1771;-87
2021/06/10 04:57:20;166473.00;0.55;288.19;0.00;0.00;0.62;;;;;20.10;1.40;;;;;;2271356;61;1646;-88
2021/06/10 04:59:46;171531.00;0.57;296.90;0.00;0.00;0.62;;;;;20.20;1.00;;;;;;2269344;61;1132;-87
2021/06/10 05:02:13;205370.00;0.68;355.17;45800.00;0.15;79.92;;;;;20.50;1.00;;;;;;2269526;61;1144;-87
2021/06/10 05:04:39;13764.00;0.05;24.47;0.00;0.00;0.62;;;;;20.70;1.00;;;;;;2268271;61;1136;-87
2021/06/10 05:07:06;25288.00;0.08;44.43;0.00;0.00;0.62;;;;;20.60;1.00;;;;;;2268148;61;1282;-87
2021/06/10 05:09:33;24320.00;0.08;42.75;0.00;0.00;0.62;;;;;20.80;1.00;;;;;;2267467;61;1098;-87
2021/06/10 05:12:00;50019.00;0.17;87.22;0.00;0.00;0.62;;;;;20.60;1.00;;;;;;2267566;61;2017;-87
2021/06/10 05:14:26;109492.00;0.36;189.95;28105.00;0.09;49.30;;;;;20.30;1.00;;;;;;2267122;61;1269;-87
2021/06/10 05:16:52;105234.00;0.35;182.61;8349.00;0.03;15.09;;;;;20.10;1.00;;;;;;2267066;61;1172;-87
2021/06/10 05:19:19;60094.00;0.20;104.64;0.00;0.00;0.62;;;;;20.20;1.60;;;;;;2267189;61;1167;-87
2021/06/10 05:21:45;108628.00;0.36;188.46;0.00;0.00;0.62;;;;;20.40;1.30;;;;;;2267429;61;1332;-87
2021/06/10 05:24:13;82059.00;0.27;142.59;8497.00;0.03;15.35;;;;;20.60;1.00;;;;;;2267242;61;1104;-86
2021/06/10 05:26:41;0.00;0.00;0.62;0.00;0.00;0.62;;;;;20.60;1.00;;;;;;2267349;61;1159;-87
2021/06/10 05:29:07;62732.00;0.21;109.20;74.00;0.00;0.75;;;;;20.30;1.00;;;;;;2267225;61;1344;-87
2021/06/10 05:31:34;5913.00;0.02;10.87;0.00;0.00;0.62;;;;;20.30;2.40;;;;;;2267216;61;2017;-87
2021/06/10 05:34:01;106254.00;0.35;184.37;16697.00;0.06;29.55;;;;;20.60;1.00;;;;;;2266592;61;1068;-87
2021/06/10 05:36:27;26016.00;0.09;45.69;0.00;0.00;0.62;;;;;20.70;1.00;;;;;;2266959;61;1161;-87
2021/06/10 05:38:54;33342.00;0.11;58.37;0.00;0.00;0.62;;;;;20.90;1.00;;;;;;2266686;61;1404;-87
2021/06/10 05:41:20;0.00;0.00;0.62;0.00;0.00;0.62;;;;;21.10;1.00;;;;;;2266856;61;1188;-87
2021/06/10 05:43:48;0.00;0.00;0.62;0.00;0.00;0.62;;;;;21.20;1.00;;;;;;2267525;61;1172;-87
2021/06/10 05:46:15;10053.00;0.03;18.04;0.00;0.00;0.62;;;;;21.80;1.00;;;;;;2268069;61;1770;-87
2021/06/10 05:48:41;400092.00;1.33;689.96;72318.00;0.24;125.77;;;;;22.50;1.00;;;;;;2267750;61;1375;-87
2021/06/10 05:51:10;100955.00;0.34;175.22;0.00;0.00;0.62;;;;;22.50;1.00;;;;;;2267353;61;1998;-87
2021/06/10 05:53:37;17921.00;0.06;31.67;0.00;0.00;0.62;;;;;22.50;1.00;;;;;;2267102;61;1647;-87
2021/06/10 05:56:04;18755.00;0.06;33.11;0.00;0.00;0.62;;;;;22.80;1.00;;;;;;2269877;61;1694;-87
2021/06/10 05:58:31;81105.00;0.27;140.95;0.00;0.00;0.62;;;;;23.10;1.00;;;;;;2270086;61;1758;-87
2021/06/10 06:00:58;35394.00;0.12;61.92;0.00;0.00;0.62;;;;;23.00;1.00;;;;;;2269743;61;1166;-87
2021/06/10 06:03:26;10198.00;0.03;18.29;0.00;0.00;0.62;;;;;23.10;1.00;;;;;;2268102;61;1282;-87
2021/06/10 06:05:53;11455.00;0.04;20.47;0.00;0.00;0.62;;;;;23.30;1.00;;;;;;2267005;61;1227;-86
2021/06/10 06:08:19;0.00;0.00;0.62;0.00;0.00;0.62;;;;;23.20;1.00;;;;;;2267714;61;1332;-87
2021/06/10 06:10:48;190290.00;0.63;329.21;0.00;0.00;0.62;;;;;23.30;1.00;;;;;;2268745;61;2002;-87
2021/06/10 06:13:16;267840.00;0.89;462.63;21600.00;0.07;38.04;;;;;23.30;1.00;;;;;;2265926;61;1232;-86
2021/06/10 06:15:42;84185.00;0.28;146.27;0.00;0.00;0.62;;;;;24.10;1.00;;;;;;2266237;61;1257;-87
2021/06/10 06:18:10;38376.00;0.13;67.08;0.00;0.00;0.62;;;;;25.10;1.00;;;;;;2265158;61;1340;-87
2021/06/10 06:20:37;14632.00;0.05;25.97;0.00;0.00;0.62;;;;;26.40;1.00;;;;;;2266100;61;1711;-87
2021/06/10 06:23:03;39620.00;0.13;69.23;0.00;0.00;0.62;;;;;28.00;1.00;;;;;;2266468;61;1570;-87
2021/06/10 06:25:30;29936.00;0.10;52.47;0.00;0.00;0.62;;;;;29.20;1.00;;;;;;2266223;61;1714;-87
2021/06/10 06:27:56;17646.00;0.06;31.19;0.00;0.00;0.62;;;;;30.10;1.00;;;;;;2265515;61;1364;-87
2021/06/10 06:30:23;0.00;0.00;0.62;0.00;0.00;0.62;;;;;30.60;1.00;;;;;;2267707;61;1923;-87
2021/06/10 06:32:49;0.00;0.00;0.62;0.00;0.00;0.62;;;;;30.90;1.00;;;;;;2265970;61;1545;-87
2021/06/10 06:35:17;0.00;0.00;0.62;0.00;0.00;0.62;;;;;29.40;1.00;;;;;;2266021;61;1134;-87
2021/06/10 06:40:12;0.00;0.00;0.62;0.00;0.00;0.62;;;;;30.80;1.00;;;;;;2283174;61;1315;-86
2021/06/10 06:42:38;0.00;0.00;0.62;0.00;0.00;0.62;;;;;31.50;1.00;;;;;;2280963;61;1018;-89
2021/06/10 06:45:06;0.00;0.00;0.62;0.00;0.00;0.62;;;;;31.90;1.00;;;;;;2280841;61;1091;-87
2021/06/10 06:47:33;0.00;0.00;0.62;0.00;0.00;0.62;;;;;32.10;1.00;;;;;;2280850;61;1246;-86
2021/06/10 06:49:59;92429.00;0.31;160.50;0.00;0.00;0.62;;;;;31.50;1.00;;;;;;2280826;61;2004;-88
2021/06/10 06:52:27;75502.00;0.25;131.27;0.00;0.00;0.62;;;;;32.20;1.00;;;;;;2280888;61;1108;-86
2021/06/10 06:54:54;14484.00;0.05;25.72;0.00;0.00;0.62;;;;;33.30;1.00;;;;;;2273810;61;985;-87
2021/06/10 06:57:20;0.00;0.00;0.62;0.00;0.00;0.62;;;;;32.90;1.00;;;;;;2280850;61;1317;-86
2021/06/10 06:59:47;114634.00;0.38;198.83;0.00;0.00;0.62;;;;;32.50;1.00;;;;;;2273797;61;1023;-85
2021/06/10 07:02:13;121335.00;0.40;210.39;0.00;0.00;0.62;;;;;33.10;1.00;;;;;;2273835;61;1017;-85
2021/06/10 07:04:39;0.00;0.00;0.62;0.00;0.00;0.62;;;;;33.30;1.00;;;;;;2273771;61;1153;-86
2021/06/10 07:07:06;0.00;0.00;0.62;0.00;0.00;0.62;;;;;34.00;1.00;;;;;;2273742;61;1003;-85
2021/06/10 07:09:33;7674.00;0.03;13.92;0.00;0.00;0.62;;;;;33.80;1.00;;;;;;2280775;61;1728;-85
2021/06/10 07:12:00;0.00;0.00;0.62;0.00;0.00;0.62;;;;;33.70;1.00;;;;;;2280847;61;1990;-85
2021/06/10 07:14:26;48966.00;0.16;85.40;0.00;0.00;0.62;;;;;33.90;1.00;;;;;;2276691;61;1006;-86
2021/06/10 07:16:53;0.00;0.00;0.62;0.00;0.00;0.62;;;;;34.00;1.00;;;;;;2273717;61;951;-85
2021/06/10 07:19:19;14483.00;0.05;25.72;0.00;0.00;0.62;;;;;33.60;1.00;;;;;;2280653;61;1396;-86
2021/06/10 07:21:47;60825.00;0.20;105.90;0.00;0.00;0.62;;;;;32.80;1.00;;;;;;2280779;61;1135;-87
2021/06/10 07:24:14;254791.00;0.85;440.19;16405.00;0.05;29.04;;;;;31.20;1.00;;;;;;2280862;61;919;-88
2021/06/10 07:26:44;0.00;0.00;0.62;0.00;0.00;0.62;;;;;30.70;1.00;;;;;;2280739;61;1023;-88
2021/06/10 07:29:10;29696.00;0.10;52.06;0.00;0.00;0.62;;;;;30.20;1.00;;;;;;2280785;61;1316;-87
2021/06/10 07:31:37;0.00;0.00;0.62;0.00;0.00;0.62;;;;;29.80;1.00;;;;;;2280299;61;1988;-87
2021/06/10 07:34:06;0.00;0.00;0.62;0.00;0.00;0.62;;;;;29.30;1.00;;;;;;2273692;61;1028;-86
2021/06/10 07:36:33;0.00;0.00;0.62;0.00;0.00;0.62;;;;;29.10;1.00;;;;;;2280784;61;1013;-86
2021/06/10 07:38:59;0.00;0.00;0.62;0.00;0.00;0.62;;;;;28.70;1.00;;;;;;2280715;61;1325;-85
2021/06/10 07:41:26;0.00;0.00;0.62;0.00;0.00;0.62;;;;;29.30;1.00;;;;;;2280643;61;1258;-87
2021/06/10 07:43:54;0.00;0.00;0.62;0.00;0.00;0.62;;;;;30.00;1.00;;;;;;2280761;61;1115;-85
2021/06/10 07:46:20;0.00;0.00;0.62;0.00;0.00;0.62;;;;;30.10;1.00;;;;;;2280796;61;1146;-87
2021/06/10 07:48:47;0.00;0.00;0.62;0.00;0.00;0.62;;;;;29.90;1.00;;;;;;2280726;61;1411;-87
2021/06/10 07:51:14;0.00;0.00;0.62;0.00;0.00;0.62;;;;;30.50;1.00;;;;;;2280723;61;1992;-87
2021/06/10 07:53:41;131907.00;0.44;228.62;0.00;0.00;0.62;;;;;31.70;1.00;;;;;;2280768;61;1040;-86
2021/06/10 07:56:08;90911.00;0.30;157.88;0.00;0.00;0.62;;;;;32.20;1.00;;;;;;2280741;61;915;-88
2021/06/10 07:58:35;6336.00;0.02;11.60;0.00;0.00;0.62;;;;;32.90;1.00;;;;;;2280688;61;1279;-85
2021/06/10 08:01:04;233737.00;0.78;403.98;9722.00;0.03;17.47;;;;;33.50;1.00;;;;;;2280661;61;1752;-85
2021/06/10 08:03:31;76003.00;0.25;132.13;0.00;0.00;0.62;;;;;33.30;1.00;;;;;;2280752;61;1018;-87
2021/06/10 08:05:59;170823.00;0.57;295.68;49438.00;0.16;86.21;;;;;32.80;1.00;;;;;;2280415;61;1015;-86
2021/06/10 08:08:25;105903.00;0.35;183.76;0.00;0.00;0.62;;;;;32.30;1.00;;;;;;2280691;61;1304;-86
2021/06/10 08:10:54;116633080.00;388.78;64266748.00;0.00;0.00;0.62;;;;;31.90;1.00;;;;;;2280593;61;1942;-86
2021/06/10 08:13:22;112369.00;0.37;194.92;0.00;0.00;0.62;;;;;32.90;1.00;;;;;;2280573;61;1692;-86
2021/06/10 08:15:50;40358.00;0.13;70.51;0.00;0.00;0.62;;;;;32.90;1.00;;;;;;2272051;61;999;-87
2021/06/10 08:18:18;0.00;0.00;0.62;0.00;0.00;0.62;;;;;33.60;1.00;;;;;;2272074;61;1299;-86
2021/06/10 08:20:45;0.00;0.00;0.62;0.00;0.00;0.62;;;;;33.90;1.00;;;;;;2272104;61;941;-85
2021/06/10 08:23:12;0.00;0.00;0.62;0.00;0.00;0.62;;;;;34.60;1.00;;;;;;2272030;61;1019;-84
2021/06/10 08:25:43;0.00;0.00;0.62;0.00;0.00;0.62;;;;;34.30;1.00;;;;;;2272099;61;944;-84
2021/06/10 08:28:12;0.00;0.00;0.62;0.00;0.00;0.62;;;;;34.50;1.00;;;;;;2272092;61;1406;-85
2021/06/10 08:30:39;0.00;0.00;0.62;0.00;0.00;0.62;;;;;34.60;1.00;;;;;;2267896;61;1993;-86
2021/06/10 08:33:06;34634.00;0.12;60.60;0.00;0.00;0.62;;;;;34.00;1.00;;;;;;2269494;61;1020;-85
2021/06/10 08:35:35;27468.00;0.09;48.20;0.00;0.00;0.62;;;;;33.90;1.00;;;;;;2276119;61;1041;-86
2021/06/10 08:38:05;0.00;0.00;0.62;0.00;0.00;0.62;;;;;33.80;1.00;;;;;;2276073;61;1373;-87
2021/06/10 08:40:32;0.00;0.00;0.62;0.00;0.00;0.62;;;;;33.90;1.00;;;;;;2272614;61;965;-86
2021/06/10 08:42:59;0.00;0.00;0.62;0.00;0.00;0.62;;;;;33.70;1.00;;;;;;2275988;61;1094;-85
2021/06/10 08:45:28;0.00;0.00;0.62;0.00;0.00;0.62;;;;;34.00;1.00;;;;;;2276071;61;960;-85
2021/06/10 08:47:55;126374.00;0.42;219.08;0.00;0.00;0.62;;;;;33.70;1.00;;;;;;2276865;61;1409;-85
2021/06/10 08:50:23;68378.00;0.23;118.96;0.00;0.00;0.62;;;;;33.80;1.00;;;;;;2280532;61;2000;-85
2021/06/10 08:52:52;0.00;0.00;0.62;0.00;0.00;0.62;;;;;34.40;1.00;;;;;;2280531;61;1137;-86
2021/06/10 08:55:19;0.00;0.00;0.62;0.00;0.00;0.62;;;;;34.10;1.00;;;;;;2280472;61;1173;-85
2021/06/10 08:57:46;100821.00;0.34;174.99;27776.00;0.09;48.73;;;;;34.30;1.00;;;;;;2280449;61;1308;-86
2021/06/10 09:00:14;13114.00;0.04;23.34;0.00;0.00;0.62;;;;;34.00;1.00;;;;;;2280518;61;1047;-86
2021/06/10 09:02:41;0.00;0.00;0.62;0.00;0.00;0.62;;;;;32.80;1.00;;;;;;2280490;61;1722;-87
2021/06/10 09:05:11;12556.00;0.04;22.38;0.00;0.00;0.62;;;;;32.20;1.00;;;;;;2280541;61;1040;-86
2021/06/10 09:07:39;0.00;0.00;0.62;0.00;0.00;0.62;;;;;32.30;1.00;;;;;;2280461;61;1395;-86
2021/06/10 09:10:09;0.00;0.00;0.62;0.00;0.00;0.62;;;;;32.30;1.00;;;;;;2280440;61;1994;-85
2021/06/10 09:12:47;4006.00;0.01;7.56;0.00;0.00;0.62;;;;;32.60;1.00;;;;;;2280467;61;1038;-87
2021/06/10 09:15:14;117852.00;0.39;204.38;0.00;0.00;0.62;;;;;32.20;1.00;;;;;;2280441;61;1052;-87
2021/06/10 09:17:41;122789.00;0.41;212.89;0.00;0.00;0.62;;;;;32.10;1.00;;;;;;2280334;61;1637;-87
2021/06/10 09:20:35;35010.00;0.12;61.25;0.00;0.00;0.62;;;;;32.30;1.00;;;;;;2280447;61;1250;-87
2021/06/10 09:23:11;176554.00;0.59;305.55;57359.00;0.19;99.91;;;;;32.10;1.00;;;;;;2280456;61;1114;-89
2021/06/10 09:25:39;191331.00;0.64;331.00;59061.00;0.20;102.85;;;;;32.00;1.00;;;;;;2280457;61;971;-86
2021/06/10 09:28:07;0.00;0.00;0.62;0.00;0.00;0.62;;;;;31.50;1.00;;;;;;2280396;61;1417;-86
2021/06/10 09:30:36;74815.00;0.25;130.08;0.00;0.00;0.62;;;;;31.20;1.00;;;;;;2280352;61;1993;-87
2021/06/10 09:33:08;16897.00;0.06;29.90;0.00;0.00;0.62;;;;;30.80;1.00;;;;;;2280371;61;1641;-86
2021/06/10 09:35:37;93775.00;0.31;162.83;16802.00;0.06;29.73;;;;;30.50;1.00;;;;;;2280387;61;1045;-86
2021/06/10 09:38:06;6410.00;0.02;11.73;0.00;0.00;0.62;;;;;29.80;1.00;;;;;;2280322;61;1342;-85
2021/06/10 09:40:33;67907.00;0.23;118.14;0.00;0.00;0.62;;;;;30.10;1.00;;;;;;2280360;61;1151;-86
2021/06/10 09:43:01;27199.00;0.09;47.73;0.00;0.00;0.62;;;;;29.80;1.00;;;;;;2280364;61;1018;-89
2021/06/10 09:45:29;0.00;0.00;0.62;0.00;0.00;0.62;;;;;30.10;1.00;;;;;;2280426;61;1205;-85
2021/06/10 09:47:59;29159.00;0.10;51.13;0.00;0.00;0.62;;;;;30.20;1.00;;;;;;2280373;61;1383;-86
2021/06/10 09:50:29;0.00;0.00;0.62;0.00;0.00;0.62;;;;;29.80;1.00;;;;;;2280360;61;2034;-87
2021/06/10 09:52:59;0.00;0.00;0.62;0.00;0.00;0.62;;;;;30.10;1.00;;;;;;2280413;61;1061;-88
2021/06/10 09:55:35;41315.00;0.14;72.16;0.00;0.00;0.62;;;;;30.60;1.00;;;;;;2280281;61;1148;-87
2021/06/10 09:58:24;41965.00;0.14;73.29;0.00;0.00;0.62;;;;;30.40;1.00;;;;;;2280237;61;1419;-87
2021/06/10 10:00:52;125418.00;0.42;217.43;0.00;0.00;0.62;;;;;30.20;1.00;;;;;;2280323;61;1010;-85
2021/06/10 10:03:32;0.00;0.00;0.62;0.00;0.00;0.62;;;;;29.60;1.00;;;;;;2280353;61;1166;-86
2021/06/10 10:06:01;15337.00;0.05;27.19;0.00;0.00;0.62;;;;;29.40;1.00;;;;;;2280263;61;1567;-85
2021/06/10 10:08:29;69616.00;0.23;121.10;0.00;0.00;0.62;;;;;29.30;1.00;;;;;;2280267;61;1509;-86
2021/06/10 10:10:56;12917.00;0.04;23.00;0.00;0.00;0.62;;;;;29.40;1.00;;;;;;2280285;61;1996;-85